Time;durP1;ratioP1;P1;durP2;ratioP2;P2;SDS_P1;SDS_P2;PMS_P1;PMS_P2;Temp;Humidity;BMP_temperature;BMP_pressure;BME280_temperature;BME280_humidity;BME280_pressure;Samples;Min_cycle;Max_cycle;Signal;HPM_P1;HPM_P2
2022/09/21 17:49:25;;;;;;;6.72;3.50;;;19.30;78.20;;;17.24;50.52;101816.66;5034116;27;1259082;-70
2022/09/21 17:54:38;;;;;;;8.30;3.50;;;17.80;75.00;;;15.59;55.26;101825.28;5040198;27;102918;-73
2022/09/21 17:57:25;;;;;;;7.60;3.38;;;16.90;78.10;;;14.72;58.25;101819.16;5050463;27;104646;-71
2022/09/21 18:00:08;;;;;;;9.05;4.32;;;16.10;80.50;;;13.93;61.00;101805.31;5043182;27;103444;-74
2022/09/21 18:02:34;;;;;;;8.77;3.53;;;15.30;82.60;;;13.31;63.88;101813.63;5055328;27;104558;-72
2022/09/21 18:05:14;;;;;;;13.20;5.03;;;14.70;85.50;;;12.76;66.93;101806.25;5046792;27;104216;-72
2022/09/21 18:07:41;;;;;;;10.65;3.85;;;14.20;87.90;;;12.30;68.87;101805.78;5042697;27;104527;-72
2022/09/21 18:10:12;;;;;;;11.43;4.53;;;13.80;89.70;;;11.94;71.57;101804.88;5043969;27;103373;-71
2022/09/21 18:13:14;;;;;;;13.52;4.28;;;13.50;90.80;;;11.61;73.51;101816.34;5050332;27;102799;-73
2022/09/21 18:16:11;;;;;;;10.13;3.58;;;13.20;91.50;;;11.31;75.58;101815.63;5049963;27;106379;-71
2022/09/21 18:19:02;;;;;;;8.85;3.70;;;12.90;92.20;;;11.03;76.99;101813.63;5052406;27;104287;-71
2022/09/21 18:21:32;;;;;;;10.18;3.42;;;12.60;92.70;;;10.83;78.16;101811.47;5044041;27;103507;-71
2022/09/21 18:24:17;;;;;;;10.07;3.13;;;12.40;93.00;;;10.64;79.56;101818.38;5038567;27;102668;-71
2022/09/21 18:26:43;;;;;;;7.63;2.55;;;12.30;93.50;;;10.54;81.36;101817.78;5041333;27;134109;-72
2022/09/21 18:29:29;;;;;;;9.43;2.15;;;12.10;94.10;;;10.34;82.00;101815.56;5055949;27;104400;-72
2022/09/21 18:32:42;;;;;;;7.20;2.40;;;12.00;94.30;;;10.14;82.48;101815.25;5044385;27;104996;-71
2022/09/21 18:35:39;;;;;;;5.22;2.20;;;11.80;94.50;;;10.05;84.69;101819.94;5054648;27;102672;-71
2022/09/21 18:38:14;;;;;;;5.45;1.90;;;11.70;95.10;;;9.94;84.75;101823.97;5045033;27;104989;-71
2022/09/21 18:41:16;;;;;;;8.18;2.10;;;11.60;95.20;;;9.80;85.42;101817.44;5046325;27;104492;-72
2022/09/21 18:44:39;;;;;;;4.65;1.65;;;11.50;95.20;;;9.71;86.56;101815.81;5010204;27;103542;-72
2022/09/21 18:47:34;;;;;;;4.45;1.70;;;11.40;95.60;;;9.60;86.49;101820.69;5035692;27;102996;-72
2022/09/21 18:50:29;;;;;;;6.43;2.10;;;11.30;95.70;;;9.54;86.97;101828.72;5046061;27;105912;-72
2022/09/21 18:53:20;;;;;;;7.22;1.92;;;11.20;95.80;;;9.42;86.55;101831.88;5040888;27;104396;-71
2022/09/21 18:55:46;;;;;;;7.70;1.90;;;11.10;95.70;;;9.35;86.85;101837.19;5025599;27;103108;-71
2022/09/21 18:58:13;;;;;;;5.47;2.00;;;11.10;95.90;;;9.70;92.64;101830.47;5044748;27;105877;-47
2022/09/21 19:00:39;;;;;;;7.75;2.50;;;11.20;98.10;;;10.98;92.27;101827.84;5036035;27;104697;-44
2022/09/21 19:03:13;;;;;;;10.77;2.63;;;11.80;99.50;;;12.28;85.29;101826.19;4938682;27;104589;-47
2022/09/21 19:07:01;;;;;;;9.07;2.40;;;12.70;98.20;;;13.72;76.89;101828.28;4939062;27;175036;-45
2022/09/21 19:09:58;;;;;;;6.53;2.20;;;14.10;95.30;;;14.52;72.50;101820.00;4997004;27;104380;-47
2022/09/21 19:13:06;;;;;;;4.97;1.67;;;14.90;93.30;;;15.13;69.50;101835.50;5023729;27;105026;-48
2022/09/21 19:16:06;;;;;;;5.75;2.20;;;15.70;91.70;;;15.57;67.45;101822.75;5024449;27;104532;-46
2022/09/21 19:18:56;;;;;;;6.00;1.98;;;16.30;90.60;;;15.96;66.09;101826.31;5012607;27;102845;-48
2022/09/21 19:21:44;;;;;;;7.45;2.00;;;16.70;89.30;;;16.21;64.64;101828.22;5018935;27;116060;-50
2022/09/21 19:24:29;;;;;;;5.25;1.85;;;17.00;87.90;;;16.44;63.80;101823.94;5019648;27;104612;-46
2022/09/21 19:27:25;;;;;;;8.07;1.95;;;17.30;86.50;;;16.62;63.12;101825.03;5021992;27;108331;-49
2022/09/21 19:30:08;;;;;;;5.25;1.80;;;17.60;85.30;;;16.75;62.47;101821.28;5013856;27;104600;-50
2022/09/21 19:32:44;;;;;;;8.60;2.00;;;17.80;84.70;;;16.88;61.78;101828.56;5016796;27;103166;-50
2022/09/21 19:35:30;;;;;;;6.25;1.88;;;17.90;83.60;;;16.96;61.50;101817.22;5017795;27;104655;-46
2022/09/21 19:38:00;;;;;;;5.78;2.08;;;18.00;82.80;;;17.05;61.29;101826.03;5019725;27;104621;-48
2022/09/21 19:40:32;;;;;;;5.22;1.83;;;18.10;82.30;;;17.11;60.57;101833.41;5024171;27;102850;-49
2022/09/21 19:43:29;;;;;;;6.20;1.90;;;18.20;81.50;;;17.18;60.21;101834.16;5009140;27;105985;-46
